createdAt,value
2023-03-07T00:00:22.368Z,5.60
2023-03-07T00:02:57.378Z,5.60
2023-03-07T00:08:13.422Z,5.50
2023-03-07T00:10:41.856Z,5.50
2023-03-07T00:13:09.003Z,5.50
2023-03-07T00:15:38.863Z,5.60
2023-03-07T00:18:09.025Z,5.60
2023-03-07T00:20:40.154Z,5.60
2023-03-07T00:23:07.409Z,5.60
2023-03-07T00:25:34.352Z,5.60
2023-03-07T00:28:04.369Z,5.50
2023-03-07T00:30:35.650Z,5.60
2023-03-07T00:33:03.855Z,5.70
2023-03-07T00:35:35.042Z,5.60
2023-03-07T00:38:04.445Z,5.60
2023-03-07T00:40:33.460Z,5.50
2023-03-07T00:43:04.246Z,5.50
2023-03-07T00:45:33.208Z,5.50
2023-03-07T00:48:02.407Z,5.60
2023-03-07T00:50:29.742Z,5.60
2023-03-07T00:52:59.932Z,5.50
2023-03-07T00:55:28.125Z,5.40
2023-03-07T00:58:00.223Z,5.40
2023-03-07T01:00:27.297Z,5.50
2023-03-07T01:02:56.371Z,5.50
2023-03-07T01:05:24.904Z,5.60
2023-03-07T01:07:52.844Z,5.50
2023-03-07T01:10:20.801Z,5.50
2023-03-07T01:12:52.875Z,5.50
2023-03-07T01:15:30.011Z,5.50
2023-03-07T01:18:04.096Z,5.50
2023-03-07T01:20:36.967Z,5.40
2023-03-07T01:23:24.504Z,5.40
2023-03-07T01:25:52.108Z,5.50
2023-03-07T01:28:20.781Z,5.50
2023-03-07T01:30:57.662Z,5.40
2023-03-07T01:33:26.770Z,5.40
2023-03-07T01:35:55.109Z,5.30
2023-03-07T01:38:22.484Z,5.40
2023-03-07T01:40:53.747Z,5.30
2023-03-07T01:43:34.228Z,5.40
2023-03-07T01:46:19.014Z,5.40
2023-03-07T01:49:07.633Z,5.40
2023-03-07T01:51:44.907Z,5.30
2023-03-07T01:54:17.478Z,5.30
2023-03-07T01:56:48.106Z,5.20
2023-03-07T01:59:20.163Z,5.30
2023-03-07T02:01:49.622Z,5.30
2023-03-07T02:04:44.626Z,5.20
2023-03-07T02:07:14.957Z,5.20
2023-03-07T02:09:46.830Z,5.10
2023-03-07T02:12:15.553Z,5.10
2023-03-07T02:14:49.660Z,5.10
2023-03-07T02:17:19.296Z,5.10
2023-03-07T02:19:51.016Z,5.10
2023-03-07T02:22:19.633Z,5.10
2023-03-07T02:25:24.006Z,5.10
2023-03-07T02:27:58.117Z,5.20
2023-03-07T02:33:24.915Z,5.00
2023-03-07T02:36:05.739Z,5.00
2023-03-07T02:38:45.110Z,5.00
2023-03-07T02:41:19.225Z,5.00
2023-03-07T02:43:49.756Z,5.00
2023-03-07T02:46:17.087Z,5.00
2023-03-07T02:48:46.942Z,5.00
2023-03-07T02:51:15.548Z,5.10
2023-03-07T02:53:47.901Z,5.00
2023-03-07T02:56:15.341Z,5.00
2023-03-07T02:58:42.776Z,5.00
2023-03-07T03:01:11.508Z,5.10
2023-03-07T03:03:42.917Z,5.10
2023-03-07T03:06:12.016Z,5.10
2023-03-07T03:08:41.058Z,5.10
2023-03-07T03:11:08.460Z,5.10
2023-03-07T03:13:39.021Z,5.10
2023-03-07T03:16:08.547Z,5.10
2023-03-07T03:18:41.274Z,5.10
2023-03-07T03:21:09.173Z,5.00
2023-03-07T03:23:38.509Z,5.10
2023-03-07T03:27:08.385Z,5.10
2023-03-07T03:29:35.875Z,5.10
2023-03-07T03:32:47.790Z,5.10
2023-03-07T03:35:47.983Z,5.20
2023-03-07T03:38:38.141Z,5.20
2023-03-07T03:41:33.288Z,5.10
2023-03-07T03:44:20.435Z,5.10
2023-03-07T03:46:52.887Z,5.10
2023-03-07T03:49:28.846Z,5.10
2023-03-07T03:52:47.780Z,5.10
2023-03-07T03:56:14.870Z,5.10
2023-03-07T03:58:43.189Z,5.10
2023-03-07T04:01:12.906Z,5.00
2023-03-07T04:03:46.741Z,5.00
2023-03-07T04:06:20.979Z,5.10
2023-03-07T04:08:49.967Z,5.10
2023-03-07T04:11:20.431Z,5.10
2023-03-07T04:13:50.393Z,5.10
2023-03-07T04:16:23.738Z,5.10
2023-03-07T04:18:55.450Z,5.10
2023-03-07T04:21:23.166Z,5.10
2023-03-07T04:23:56.556Z,5.10
2023-03-07T04:26:28.586Z,5.10
2023-03-07T04:29:26.935Z,5.10
2023-03-07T04:32:42.610Z,5.10
2023-03-07T04:39:36.261Z,5.00
2023-03-07T04:42:12.893Z,5.00
2023-03-07T04:49:06.636Z,5.00
2023-03-07T04:56:01.250Z,4.90
2023-03-07T04:58:34.058Z,5.00
2023-03-07T05:01:05.694Z,4.90
2023-03-07T05:03:35.724Z,5.00
2023-03-07T05:06:09.402Z,4.90
2023-03-07T05:08:39.857Z,4.90
2023-03-07T05:11:32.598Z,5.00
2023-03-07T05:14:00.150Z,4.90
2023-03-07T05:16:27.305Z,4.90
2023-03-07T05:18:54.771Z,4.90
2023-03-07T05:21:22.008Z,5.00
2023-03-07T05:23:50.056Z,5.00
2023-03-07T05:26:17.119Z,5.00
2023-03-07T05:28:45.268Z,5.00
2023-03-07T05:31:13.556Z,5.00
2023-03-07T05:33:42.671Z,4.90
2023-03-07T05:36:10.505Z,4.90
2023-03-07T05:38:39.832Z,4.90
2023-03-07T05:41:08.854Z,4.90
2023-03-07T05:43:36.574Z,4.90
2023-03-07T05:46:04.055Z,4.90
2023-03-07T05:48:33.503Z,4.90
2023-03-07T05:51:03.719Z,5.00
2023-03-07T05:53:32.208Z,4.90
2023-03-07T05:56:00.690Z,4.90
2023-03-07T05:58:31.095Z,4.80
2023-03-07T06:00:58.687Z,4.90
2023-03-07T06:03:25.882Z,4.80
2023-03-07T06:05:53.008Z,4.80
2023-03-07T06:08:20.657Z,4.80
2023-03-07T06:10:52.616Z,4.80
2023-03-07T06:13:26.113Z,4.80
2023-03-07T06:15:55.284Z,4.80
2023-03-07T06:18:25.940Z,4.80
2023-03-07T06:21:04.838Z,4.90
2023-03-07T06:23:37.750Z,4.90
2023-03-07T06:26:10.389Z,4.90
2023-03-07T06:28:37.836Z,4.90
2023-03-07T06:31:13.518Z,4.90
2023-03-07T06:33:47.838Z,4.90
2023-03-07T06:36:18.953Z,5.00
2023-03-07T06:38:49.683Z,5.00
2023-03-07T06:41:19.278Z,5.00
2023-03-07T06:43:50.674Z,4.90
2023-03-07T06:46:20.650Z,4.90
2023-03-07T06:48:53.187Z,5.00
2023-03-07T06:51:21.658Z,5.10
2023-03-07T06:53:49.501Z,5.10
2023-03-07T06:56:17.327Z,5.10
2023-03-07T06:58:50.084Z,5.10
2023-03-07T07:01:20.021Z,5.10
2023-03-07T07:03:49.900Z,5.10
2023-03-07T07:06:18.722Z,5.20
2023-03-07T07:08:45.795Z,5.20
2023-03-07T07:11:13.146Z,5.20
2023-03-07T07:13:40.277Z,5.30
2023-03-07T07:16:10.445Z,5.30
2023-03-07T07:18:39.494Z,5.30
2023-03-07T07:21:08.456Z,5.40
2023-03-07T07:23:35.629Z,5.30
2023-03-07T07:26:04.176Z,5.30
2023-03-07T07:28:31.839Z,5.40
2023-03-07T07:31:00.206Z,5.40
2023-03-07T07:33:29.723Z,5.40
2023-03-07T07:35:58.588Z,5.40
2023-03-07T07:38:27.105Z,5.40
2023-03-07T07:40:54.068Z,5.40
2023-03-07T07:43:22.545Z,5.50
2023-03-07T07:45:59.095Z,5.40
2023-03-07T07:48:26.681Z,5.50
2023-03-07T07:50:54.909Z,5.40
2023-03-07T07:53:23.444Z,5.40
2023-03-07T07:55:50.850Z,5.40
2023-03-07T07:58:19.392Z,5.40
2023-03-07T08:00:52.868Z,5.30
2023-03-07T08:03:21.199Z,5.30
2023-03-07T08:05:48.761Z,5.30
2023-03-07T08:08:19.865Z,5.30
2023-03-07T08:10:48.315Z,5.30
2023-03-07T08:13:17.987Z,5.40
2023-03-07T08:15:45.363Z,5.40
2023-03-07T08:18:13.584Z,5.40
2023-03-07T08:20:43.587Z,5.40
2023-03-07T08:23:14.733Z,5.40
2023-03-07T08:25:42.418Z,5.50
2023-03-07T08:28:11.290Z,5.40
2023-03-07T08:30:39.426Z,5.40
2023-03-07T08:33:07.545Z,5.40
2023-03-07T08:35:34.943Z,5.40
2023-03-07T08:38:03.666Z,5.40
2023-03-07T08:40:42.114Z,5.40
2023-03-07T08:43:09.314Z,5.40
2023-03-07T08:45:39.973Z,5.50
2023-03-07T08:48:09.023Z,5.50
2023-03-07T08:50:36.515Z,5.60
2023-03-07T08:53:06.203Z,5.60
2023-03-07T08:55:36.555Z,5.60
2023-03-07T08:58:03.982Z,5.60
2023-03-07T09:00:31.445Z,5.60
2023-03-07T09:03:01.528Z,5.70
2023-03-07T09:05:30.425Z,5.60
2023-03-07T09:08:06.436Z,5.70
2023-03-07T09:10:34.578Z,5.60
2023-03-07T09:13:05.651Z,5.50
2023-03-07T09:15:34.248Z,5.60
2023-03-07T09:18:01.720Z,5.70
2023-03-07T09:20:31.779Z,5.80
2023-03-07T09:23:05.020Z,5.80
2023-03-07T09:25:34.503Z,5.80
2023-03-07T09:28:02.595Z,5.80
2023-03-07T09:30:29.988Z,5.90
2023-03-07T09:32:57.416Z,5.90
2023-03-07T09:35:24.536Z,5.90
2023-03-07T09:37:51.463Z,5.80
2023-03-07T09:40:24.504Z,5.70
2023-03-07T09:42:59.028Z,5.80
2023-03-07T09:46:07.209Z,5.90
2023-03-07T09:49:24.268Z,6.00
2023-03-07T09:52:01.339Z,6.10
2023-03-07T09:55:00.152Z,6.20
2023-03-07T09:57:35.599Z,6.00
2023-03-07T10:00:40.554Z,5.90
2023-03-07T10:03:35.885Z,6.00
2023-03-07T10:06:20.112Z,6.20
2023-03-07T10:08:47.220Z,6.20
2023-03-07T10:11:39.476Z,6.20
2023-03-07T10:14:31.711Z,6.30
2023-03-07T10:17:22.965Z,6.40
2023-03-07T10:20:02.071Z,6.40
2023-03-07T10:22:38.153Z,6.40
2023-03-07T10:25:30.623Z,6.30
2023-03-07T10:28:15.102Z,6.30
2023-03-07T10:30:42.747Z,6.40
2023-03-07T10:33:22.299Z,6.40
2023-03-07T10:36:22.300Z,6.30
2023-03-07T10:39:03.513Z,6.30
2023-03-07T10:41:32.926Z,6.30
2023-03-07T10:44:00.086Z,6.30
2023-03-07T10:46:30.409Z,6.30
2023-03-07T10:49:14.945Z,6.40
2023-03-07T10:52:04.586Z,6.40
2023-03-07T10:54:34.488Z,6.20
2023-03-07T10:57:17.767Z,6.20
2023-03-07T10:59:50.346Z,6.20
2023-03-07T11:02:46.838Z,6.30
2023-03-07T11:05:34.330Z,6.40
2023-03-07T11:08:31.650Z,6.30
2023-03-07T11:11:02.522Z,6.30
2023-03-07T11:13:30.547Z,6.20
2023-03-07T11:16:32.829Z,6.20
2023-03-07T11:19:00.246Z,6.20
2023-03-07T11:21:35.739Z,6.20
2023-03-07T11:24:28.632Z,6.30
2023-03-07T11:27:30.739Z,6.20
2023-03-07T11:30:41.697Z,6.20
2023-03-07T11:33:18.302Z,6.10
2023-03-07T11:36:13.671Z,6.00
2023-03-07T11:38:51.400Z,6.10
2023-03-07T11:42:13.789Z,6.00
2023-03-07T11:45:24.907Z,6.00
2023-03-07T11:48:20.814Z,6.00
2023-03-07T11:51:41.899Z,6.10
2023-03-07T11:54:38.263Z,6.10
2023-03-07T11:57:42.695Z,6.10
2023-03-07T12:00:32.764Z,6.20
2023-03-07T12:03:19.876Z,6.20
2023-03-07T12:06:29.116Z,6.20
2023-03-07T12:09:19.115Z,6.20
2023-03-07T12:12:39.234Z,6.20
2023-03-07T12:15:56.114Z,6.20
2023-03-07T12:19:06.275Z,6.40
2023-03-07T12:22:24.322Z,6.40
2023-03-07T12:25:09.450Z,6.50
2023-03-07T12:27:45.739Z,6.40
2023-03-07T12:31:04.991Z,6.30
2023-03-07T12:34:12.117Z,6.00
2023-03-07T12:36:50.083Z,6.00
2023-03-07T12:39:45.238Z,5.90
2023-03-07T12:43:13.805Z,5.70
2023-03-07T12:45:50.641Z,5.70
2023-03-07T12:48:39.535Z,5.70
2023-03-07T12:51:11.615Z,5.80
2023-03-07T12:53:52.182Z,5.80
2023-03-07T12:56:33.079Z,5.80
2023-03-07T12:59:12.846Z,5.70
2023-03-07T13:02:06.476Z,5.60
2023-03-07T13:04:35.896Z,5.70
2023-03-07T13:07:08.862Z,5.90
2023-03-07T13:09:39.906Z,5.80
2023-03-07T13:12:16.533Z,5.80
2023-03-07T13:14:52.447Z,5.80
2023-03-07T13:17:52.594Z,5.80
2023-03-07T13:20:29.000Z,5.80
2023-03-07T13:22:59.753Z,6.00
2023-03-07T13:25:27.725Z,5.90
2023-03-07T13:27:58.763Z,5.80
2023-03-07T13:30:30.670Z,5.80
2023-03-07T13:33:04.531Z,5.80
2023-03-07T13:35:32.906Z,5.80
2023-03-07T13:38:15.659Z,5.70
2023-03-07T13:41:05.839Z,5.70
2023-03-07T13:43:44.605Z,5.80
2023-03-07T13:46:39.232Z,5.80
2023-03-07T13:49:07.524Z,5.80
2023-03-07T13:51:35.757Z,5.70
2023-03-07T13:54:05.752Z,5.70
2023-03-07T13:56:41.549Z,5.70
2023-03-07T13:59:21.572Z,5.70
2023-03-07T14:02:12.901Z,5.80
2023-03-07T14:04:53.249Z,6.00
2023-03-07T14:07:28.402Z,5.90
2023-03-07T14:10:09.830Z,5.90
2023-03-07T14:13:34.294Z,5.90
2023-03-07T14:16:19.341Z,5.90
2023-03-07T14:18:57.756Z,5.90
2023-03-07T14:21:52.827Z,6.00
2023-03-07T14:24:48.959Z,6.00
2023-03-07T14:27:16.807Z,6.00
2023-03-07T14:29:57.011Z,6.10
2023-03-07T14:32:30.099Z,6.20
2023-03-07T14:34:58.112Z,6.20
2023-03-07T14:37:31.338Z,6.10
2023-03-07T14:39:58.646Z,6.10
2023-03-07T14:42:47.654Z,6.10
2023-03-07T14:45:45.684Z,6.10
2023-03-07T14:48:32.569Z,6.10
2023-03-07T14:51:11.867Z,6.20
2023-03-07T14:53:39.748Z,6.20
2023-03-07T14:56:08.204Z,6.20
2023-03-07T14:59:03.229Z,6.10
2023-03-07T15:01:36.889Z,6.30
2023-03-07T15:04:29.410Z,6.40
2023-03-07T15:07:05.182Z,6.60
2023-03-07T15:09:34.759Z,6.50
2023-03-07T15:12:18.121Z,6.60
2023-03-07T15:14:47.821Z,6.60
2023-03-07T15:17:23.982Z,6.50
2023-03-07T15:19:57.138Z,6.50
2023-03-07T15:22:33.164Z,6.50
2023-03-07T15:25:00.151Z,6.40
2023-03-07T15:27:30.916Z,6.10
2023-03-07T15:30:02.476Z,5.90
2023-03-07T15:32:35.237Z,5.80
2023-03-07T15:35:08.314Z,5.60
2023-03-07T15:37:50.430Z,5.50
2023-03-07T15:40:33.565Z,5.50
2023-03-07T15:43:06.271Z,5.40
2023-03-07T15:45:33.153Z,5.20
2023-03-07T15:48:23.142Z,5.20
2023-03-07T15:50:59.274Z,5.20
2023-03-07T15:53:32.242Z,5.10
2023-03-07T15:56:07.404Z,5.00
2023-03-07T15:58:36.730Z,5.00
2023-03-07T16:01:21.616Z,4.90
2023-03-07T16:03:50.335Z,4.80
2023-03-07T16:06:38.668Z,4.90
2023-03-07T16:09:14.780Z,4.90
2023-03-07T16:11:43.012Z,4.90
2023-03-07T16:14:29.721Z,4.90
2023-03-07T16:17:00.142Z,4.90
2023-03-07T16:19:27.910Z,4.90
2023-03-07T16:21:55.032Z,4.90
2023-03-07T16:24:22.060Z,5.00
2023-03-07T16:26:49.508Z,5.00
2023-03-07T16:29:20.685Z,5.00
2023-03-07T16:31:48.649Z,5.00
2023-03-07T16:34:20.894Z,5.00
2023-03-07T16:36:49.533Z,5.00
2023-03-07T16:39:18.034Z,4.90
2023-03-07T16:41:50.342Z,4.90
2023-03-07T16:44:19.475Z,4.90
2023-03-07T16:46:56.993Z,4.90
2023-03-07T16:49:23.943Z,4.90
2023-03-07T16:52:04.568Z,4.90
2023-03-07T16:54:33.888Z,4.90
2023-03-07T16:57:03.805Z,4.80
2023-03-07T16:59:46.680Z,4.60
2023-03-07T17:02:17.761Z,4.70
2023-03-07T17:04:47.804Z,4.60
2023-03-07T17:07:19.441Z,4.70
2023-03-07T17:09:49.442Z,4.60
2023-03-07T17:12:20.955Z,4.50
2023-03-07T17:14:49.007Z,4.50
2023-03-07T17:17:45.703Z,4.50
2023-03-07T17:20:33.336Z,4.50
2023-03-07T17:23:06.966Z,4.50
2023-03-07T17:25:36.463Z,4.60
2023-03-07T17:28:14.272Z,4.50
2023-03-07T17:30:45.559Z,4.50
2023-03-07T17:33:26.999Z,4.60
2023-03-07T17:35:58.290Z,4.50
2023-03-07T17:38:28.910Z,4.60
2023-03-07T17:41:06.234Z,4.60
2023-03-07T17:43:47.463Z,4.50
2023-03-07T17:46:22.589Z,4.50
2023-03-07T17:54:27.108Z,4.70
2023-03-07T17:57:00.425Z,4.60
2023-03-07T18:02:29.383Z,4.60
2023-03-07T18:07:43.069Z,4.70
2023-03-07T18:10:13.188Z,4.70
2023-03-07T18:12:50.790Z,4.70
2023-03-07T18:15:25.717Z,4.50
2023-03-07T18:19:00.062Z,4.50
2023-03-07T18:21:56.798Z,4.50
2023-03-07T18:24:32.358Z,4.40
2023-03-07T18:27:09.833Z,4.30
2023-03-07T18:29:42.421Z,4.30
2023-03-07T18:32:11.155Z,4.40
2023-03-07T18:34:50.982Z,4.30
2023-03-07T18:37:45.382Z,4.10
2023-03-07T18:40:17.430Z,4.00
2023-03-07T18:43:44.554Z,4.10
2023-03-07T18:50:55.312Z,3.90
2023-03-07T18:59:46.552Z,4.10
2023-03-07T19:47:15.063Z,4.10
2023-03-07T19:53:10.442Z,4.10
2023-03-07T19:56:31.120Z,4.10
2023-03-07T19:59:18.864Z,4.10
2023-03-07T20:01:53.661Z,4.20
2023-03-07T20:13:17.333Z,4.10
2023-03-07T20:23:17.568Z,4.20
2023-03-07T20:25:52.051Z,4.10
2023-03-07T20:28:24.639Z,4.10
2023-03-07T20:30:57.963Z,3.90
2023-03-07T20:33:33.470Z,3.90
2023-03-07T20:36:13.653Z,4.00
2023-03-07T20:38:51.230Z,4.10
2023-03-07T20:41:47.496Z,4.20
2023-03-07T20:56:06.546Z,4.20
2023-03-07T20:58:43.207Z,4.00
2023-03-07T21:11:02.537Z,3.50
2023-03-07T21:20:30.653Z,3.50
2023-03-07T21:26:01.865Z,3.40
2023-03-07T21:36:38.002Z,3.30
2023-03-07T21:39:35.213Z,3.30
2023-03-07T21:42:06.611Z,3.30
2023-03-07T21:44:48.804Z,3.30
2023-03-07T21:50:05.359Z,3.30
2023-03-07T21:52:37.725Z,3.30
2023-03-07T21:58:27.128Z,3.50
2023-03-07T22:01:02.099Z,3.40
2023-03-07T22:03:30.252Z,3.40
2023-03-07T22:06:08.063Z,3.30
2023-03-07T22:09:19.531Z,3.30
2023-03-07T22:12:02.216Z,3.20
2023-03-07T22:38:06.329Z,3.20
2023-03-07T22:41:17.448Z,3.20
2023-03-07T23:04:19.777Z,3.10
2023-03-07T23:07:50.696Z,3.10
2023-03-07T23:10:20.105Z,3.10
2023-03-07T23:22:47.943Z,3.20
2023-03-07T23:25:22.138Z,3.20
2023-03-07T23:28:03.917Z,3.20
2023-03-07T23:30:43.141Z,3.30
2023-03-07T23:33:17.723Z,3.50
2023-03-07T23:35:55.293Z,3.40
2023-03-07T23:38:29.333Z,3.60
2023-03-07T23:47:26.131Z,3.90
2023-03-07T23:49:53.752Z,3.70
2023-03-07T23:52:21.625Z,3.60
2023-03-07T23:54:49.464Z,3.60
2023-03-07T23:57:20.189Z,3.50
2023-03-07T23:59:48.704Z,3.60
